createdAt,value
2022-11-13T05:01:02.932Z,1.80
2022-11-13T05:02:02.934Z,1.60
2022-11-13T05:03:02.855Z,2.30
2022-11-13T05:04:02.846Z,1.80
2022-11-13T05:05:05.216Z,2.30
2022-11-13T05:06:02.811Z,2.30
2022-11-13T05:07:02.914Z,1.90
2022-11-13T05:08:02.785Z,1.90
2022-11-13T05:09:02.782Z,2.00
2022-11-13T05:10:02.778Z,1.80
2022-11-13T05:11:02.742Z,1.90
2022-11-13T05:12:02.751Z,2.20
2022-11-13T05:13:02.801Z,1.70
2022-11-13T05:14:03.776Z,1.90
2022-11-13T05:15:09.704Z,1.70
2022-11-13T05:16:08.163Z,2.40
2022-11-13T05:17:02.715Z,1.60
2022-11-13T05:18:02.652Z,1.80
2022-11-13T05:19:09.670Z,2.40
2022-11-13T05:20:02.631Z,2.20
2022-11-13T05:21:02.611Z,2.30
2022-11-13T05:22:02.600Z,2.00
2022-11-13T05:23:02.637Z,1.50
2022-11-13T05:24:02.570Z,1.80
2022-11-13T05:25:02.567Z,1.90
2022-11-13T05:26:09.558Z,1.60
2022-11-13T05:27:02.528Z,1.90
2022-11-13T05:28:02.517Z,1.90
2022-11-13T05:29:02.557Z,2.20
2022-11-13T05:30:02.506Z,2.00
2022-11-13T05:31:02.480Z,2.00
2022-11-13T05:32:09.482Z,1.70
2022-11-13T05:33:02.453Z,2.00
2022-11-13T05:34:05.726Z,1.60
2022-11-13T05:35:02.478Z,1.80
2022-11-13T05:36:02.419Z,1.90
2022-11-13T05:37:02.420Z,2.20
2022-11-13T05:38:02.413Z,1.90
2022-11-13T05:39:02.415Z,1.90
2022-11-13T05:40:02.447Z,2.00
2022-11-13T05:41:02.558Z,1.80
2022-11-13T05:42:02.482Z,1.70
2022-11-13T05:43:02.344Z,1.80
2022-11-13T05:44:02.330Z,2.00
2022-11-13T05:45:02.313Z,2.30
2022-11-13T05:46:02.293Z,1.60
2022-11-13T05:47:02.336Z,1.80
2022-11-13T05:48:02.266Z,1.40
2022-11-13T05:49:02.254Z,1.70
2022-11-13T05:50:02.260Z,1.60
2022-11-13T05:51:02.231Z,1.90
2022-11-13T05:52:02.213Z,2.30
2022-11-13T05:53:02.274Z,2.00
2022-11-13T05:54:02.203Z,1.90
2022-11-13T05:55:02.183Z,2.20
2022-11-13T05:56:02.172Z,2.20
2022-11-13T05:57:02.156Z,2.40
2022-11-13T05:58:02.152Z,1.90
2022-11-13T05:59:02.191Z,1.70
2022-11-13T06:00:02.117Z,2.20
2022-11-13T06:01:02.103Z,1.70
2022-11-13T06:02:02.170Z,1.60
2022-11-13T06:03:02.090Z,2.10
2022-11-13T06:04:02.064Z,2.00
2022-11-13T06:05:02.150Z,2.30
2022-11-13T06:06:02.039Z,1.80
2022-11-13T06:07:02.061Z,2.10
2022-11-13T06:08:02.018Z,1.80
2022-11-13T06:09:02.001Z,1.50
2022-11-13T06:10:01.986Z,1.60
2022-11-13T06:11:02.020Z,1.80
2022-11-13T06:12:01.965Z,1.90
2022-11-13T06:13:01.957Z,1.80
2022-11-13T06:14:01.938Z,1.70
2022-11-13T06:15:01.917Z,1.50
2022-11-13T06:16:01.920Z,2.10
2022-11-13T06:17:01.968Z,1.50
2022-11-13T06:18:01.887Z,1.60
2022-11-13T06:19:01.901Z,1.80
2022-11-13T06:20:01.862Z,1.90
2022-11-13T06:21:01.847Z,1.90
2022-11-13T06:22:01.846Z,1.80
2022-11-13T06:23:01.863Z,1.60
2022-11-13T06:24:01.807Z,1.90
2022-11-13T06:25:01.795Z,2.50
2022-11-13T06:26:01.781Z,1.60
2022-11-13T06:27:01.768Z,1.60
2022-11-13T06:28:01.803Z,1.90
2022-11-13T06:29:01.740Z,1.90
2022-11-13T06:30:01.725Z,2.10
2022-11-13T06:31:01.712Z,1.80
2022-11-13T06:32:01.702Z,1.80
2022-11-13T06:33:01.743Z,1.40
2022-11-13T06:34:01.681Z,1.80
2022-11-13T06:35:01.660Z,1.60
2022-11-13T06:36:01.649Z,2.10
2022-11-13T06:37:01.982Z,1.90
2022-11-13T06:38:01.630Z,1.40
2022-11-13T06:39:01.745Z,2.00
2022-11-13T06:40:01.601Z,1.90
2022-11-13T06:41:01.604Z,2.20
2022-11-13T06:42:01.575Z,2.10
2022-11-13T06:43:01.570Z,2.10
2022-11-13T06:44:03.329Z,2.50
2022-11-13T06:45:01.596Z,1.70
2022-11-13T06:46:01.518Z,2.00
2022-11-13T06:47:01.498Z,1.70
2022-11-13T06:48:01.499Z,1.80
2022-11-13T06:49:01.476Z,2.00
2022-11-13T06:50:01.494Z,1.90
2022-11-13T06:51:01.495Z,2.20
2022-11-13T06:52:01.456Z,2.20
2022-11-13T06:53:01.428Z,1.90
2022-11-13T06:54:01.420Z,1.70
2022-11-13T06:55:01.428Z,2.10
2022-11-13T06:56:01.392Z,2.30
2022-11-13T06:57:01.431Z,1.90
2022-11-13T06:58:01.364Z,1.50
2022-11-13T06:59:01.872Z,3.30
2022-11-13T07:00:01.347Z,2.70
2022-11-13T07:01:01.391Z,1.80
2022-11-13T07:02:01.312Z,2.70
2022-11-13T07:03:01.322Z,1.80
2022-11-13T07:04:01.352Z,2.30
2022-11-13T07:05:01.270Z,1.90
2022-11-13T07:06:01.260Z,2.10
2022-11-13T07:07:01.365Z,2.50
2022-11-13T07:08:01.231Z,2.30
2022-11-13T07:09:01.223Z,2.10
2022-11-13T07:10:01.262Z,2.10
2022-11-13T07:11:01.198Z,2.30
2022-11-13T07:12:01.191Z,2.00
2022-11-13T07:13:01.166Z,2.50
2022-11-13T07:14:01.170Z,2.40
2022-11-13T07:15:01.146Z,2.20
2022-11-13T07:16:09.251Z,2.70
2022-11-13T07:17:09.582Z,2.00
2022-11-13T07:18:02.107Z,2.30
2022-11-13T07:19:01.088Z,2.20
2022-11-13T07:20:01.078Z,1.90
2022-11-13T07:21:01.056Z,2.20
2022-11-13T07:22:01.106Z,2.30
2022-11-13T07:23:01.036Z,2.20
2022-11-13T07:24:01.035Z,1.90
2022-11-13T07:25:01.016Z,1.70
2022-11-13T07:26:00.996Z,2.10
2022-11-13T07:27:00.990Z,2.40
2022-11-13T07:28:01.101Z,2.00
2022-11-13T07:29:01.005Z,1.60
2022-11-13T07:30:03.931Z,1.70
2022-11-13T07:31:00.947Z,1.70
2022-11-13T07:32:00.932Z,1.60
2022-11-13T07:33:00.913Z,2.00
2022-11-13T07:34:00.902Z,1.90
2022-11-13T07:35:00.941Z,2.10
2022-11-13T07:36:00.882Z,2.10
2022-11-13T07:37:00.861Z,1.90
2022-11-13T07:38:00.858Z,1.80
2022-11-13T07:39:00.854Z,1.60
2022-11-13T07:40:00.821Z,2.10
2022-11-13T07:41:01.007Z,1.90
2022-11-13T07:42:00.799Z,2.00
2022-11-13T07:43:00.788Z,2.20
2022-11-13T07:44:02.557Z,1.70
2022-11-13T07:45:00.760Z,1.90
2022-11-13T07:46:00.782Z,1.90
2022-11-13T07:47:00.769Z,2.00
2022-11-13T07:48:00.719Z,2.50
2022-11-13T07:49:00.708Z,2.10
2022-11-13T07:50:06.970Z,1.90
2022-11-13T07:51:01.686Z,2.10
2022-11-13T07:52:00.675Z,1.70
2022-11-13T07:53:00.697Z,1.70
2022-11-13T07:54:00.646Z,2.00
2022-11-13T07:55:00.633Z,2.00
2022-11-13T07:56:00.617Z,2.20
2022-11-13T07:57:00.604Z,2.00
2022-11-13T07:58:00.593Z,1.90
2022-11-13T07:59:00.626Z,1.70
2022-11-13T08:00:00.576Z,2.70
2022-11-13T08:01:00.608Z,3.40
2022-11-13T08:02:00.627Z,2.80
2022-11-13T08:03:00.535Z,2.40
2022-11-13T08:04:00.520Z,2.50
2022-11-13T08:05:00.506Z,2.40
2022-11-13T08:06:00.492Z,2.10
2022-11-13T08:07:00.501Z,2.00
2022-11-13T08:08:00.564Z,2.30
2022-11-13T08:09:00.451Z,3.00
2022-11-13T08:10:00.444Z,2.20
2022-11-13T08:11:00.430Z,2.10
2022-11-13T08:12:00.413Z,2.10
2022-11-13T08:13:00.402Z,2.30
2022-11-13T08:14:00.500Z,2.00
2022-11-13T08:15:00.370Z,2.00
2022-11-13T08:16:00.375Z,2.40
2022-11-13T08:17:00.354Z,1.70
2022-11-13T08:18:00.340Z,2.30
2022-11-13T08:19:00.326Z,2.20
2022-11-13T08:20:00.372Z,2.00
2022-11-13T08:21:00.298Z,2.20
2022-11-13T08:22:00.293Z,1.90
2022-11-13T08:23:00.269Z,2.30
2022-11-13T08:24:00.257Z,2.00
2022-11-13T08:25:00.247Z,2.90
2022-11-13T08:26:00.268Z,1.70
2022-11-13T08:27:00.219Z,2.20
2022-11-13T08:28:00.207Z,2.00
2022-11-13T08:29:00.193Z,1.90
2022-11-13T08:30:00.253Z,2.60
2022-11-13T08:31:00.171Z,2.10
2022-11-13T08:32:00.156Z,2.30
2022-11-13T08:33:00.153Z,2.00
2022-11-13T08:34:00.130Z,2.30
2022-11-13T08:35:00.115Z,2.20
2022-11-13T08:36:00.155Z,2.00
2022-11-13T08:37:00.091Z,2.10
2022-11-13T08:38:00.090Z,2.10
2022-11-13T08:39:00.144Z,2.00
2022-11-13T08:40:00.080Z,1.80
2022-11-13T08:41:03.226Z,2.20
2022-11-13T08:42:01.103Z,1.90
2022-11-13T08:43:00.020Z,2.20
2022-11-13T08:44:00.000Z,1.90
2022-11-13T08:44:59.995Z,2.00
2022-11-13T08:45:59.971Z,2.20
2022-11-13T08:46:59.963Z,1.90
2022-11-13T08:48:00.159Z,1.50
2022-11-13T08:48:59.934Z,1.90
2022-11-13T08:49:59.931Z,2.30
2022-11-13T08:50:59.915Z,2.00
2022-11-13T08:51:59.940Z,1.90
2022-11-13T08:52:59.892Z,1.50
2022-11-13T08:53:59.926Z,1.90
2022-11-13T08:54:59.867Z,2.60
2022-11-13T08:55:59.850Z,2.00
2022-11-13T08:57:05.617Z,2.10
2022-11-13T08:58:00.868Z,2.10
2022-11-13T08:58:59.807Z,2.20
2022-11-13T08:59:59.805Z,2.40
2022-11-13T09:01:00.498Z,2.80
2022-11-13T09:01:59.773Z,2.30
2022-11-13T09:02:59.753Z,2.70
2022-11-13T09:03:59.797Z,2.50
2022-11-13T09:04:59.724Z,2.30
2022-11-13T09:05:59.714Z,2.20
2022-11-13T09:06:59.766Z,2.20
2022-11-13T09:07:59.685Z,2.60
2022-11-13T09:08:59.675Z,2.00
2022-11-13T09:09:59.663Z,1.90
2022-11-13T09:10:59.655Z,2.00
2022-11-13T09:11:59.636Z,2.60
2022-11-13T09:12:59.694Z,2.10
2022-11-13T09:13:59.623Z,2.20
2022-11-13T09:14:59.604Z,2.30
2022-11-13T09:15:59.583Z,2.40
2022-11-13T09:16:59.572Z,2.60
2022-11-13T09:17:59.573Z,2.60
2022-11-13T09:18:59.660Z,2.50
2022-11-13T09:20:03.939Z,2.40
2022-11-13T09:21:00.521Z,2.30
2022-11-13T09:21:59.509Z,2.00
2022-11-13T09:22:59.502Z,1.90
2022-11-13T09:23:59.478Z,2.10
2022-11-13T09:24:59.739Z,2.40
2022-11-13T09:25:59.451Z,2.70
2022-11-13T09:26:59.440Z,2.40
2022-11-13T09:27:59.430Z,2.20
2022-11-13T09:28:59.435Z,2.60
2022-11-13T09:29:59.401Z,2.20
2022-11-13T09:30:59.431Z,2.30
2022-11-13T09:31:59.378Z,2.70
2022-11-13T09:32:59.372Z,2.10
2022-11-13T09:33:59.350Z,2.20
2022-11-13T09:34:59.336Z,2.10
2022-11-13T09:35:59.441Z,2.20
2022-11-13T09:36:59.328Z,2.30
2022-11-13T09:37:59.297Z,2.20
2022-11-13T09:38:59.283Z,2.10
2022-11-13T09:39:59.272Z,2.40
2022-11-13T09:40:59.286Z,2.60
2022-11-13T09:41:59.367Z,2.10
2022-11-13T09:42:59.234Z,2.00
2022-11-13T09:44:00.113Z,2.80
2022-11-13T09:44:59.204Z,2.60
2022-11-13T09:45:59.186Z,2.40
2022-11-13T09:46:59.184Z,2.50
2022-11-13T09:47:59.293Z,2.30
2022-11-13T09:48:59.156Z,2.20
2022-11-13T09:49:59.142Z,2.90
2022-11-13T09:50:59.131Z,2.70
2022-11-13T09:52:03.917Z,2.80
2022-11-13T09:53:00.341Z,2.70
2022-11-13T09:53:59.088Z,2.90
2022-11-13T09:54:59.081Z,2.70
2022-11-13T09:55:59.102Z,2.50
2022-11-13T09:56:59.051Z,2.80
2022-11-13T09:57:59.041Z,2.40
2022-11-13T09:58:59.078Z,2.90
2022-11-13T09:59:59.021Z,2.40
2022-11-13T10:00:59.015Z,2.50
2022-11-13T10:01:58.989Z,2.80
2022-11-13T10:02:58.971Z,2.50
2022-11-13T10:04:03.251Z,2.60
2022-11-13T10:05:00.559Z,2.80
2022-11-13T10:05:58.936Z,3.10
2022-11-13T10:06:59.027Z,2.90
2022-11-13T10:07:58.928Z,2.60
2022-11-13T10:08:58.909Z,2.90
2022-11-13T10:09:58.889Z,3.10
2022-11-13T10:10:59.086Z,2.80
2022-11-13T10:11:58.860Z,3.00
2022-11-13T10:12:58.914Z,2.40
2022-11-13T10:13:58.846Z,2.80
2022-11-13T10:14:58.817Z,2.90
2022-11-13T10:15:58.860Z,2.90
2022-11-13T10:16:58.845Z,2.30
2022-11-13T10:17:58.783Z,3.00
2022-11-13T10:18:58.765Z,2.50
2022-11-13T10:19:58.754Z,2.70
2022-11-13T10:20:58.753Z,2.90
2022-11-13T10:22:19.574Z,3.20
2022-11-13T10:22:59.815Z,2.60
2022-11-13T10:23:58.695Z,2.40
2022-11-13T10:24:58.683Z,3.10
2022-11-13T10:25:58.684Z,3.00
2022-11-13T10:26:58.663Z,2.40
2022-11-13T10:27:58.734Z,2.90
2022-11-13T10:28:58.800Z,2.00
2022-11-13T10:29:58.612Z,2.30
2022-11-13T10:30:58.629Z,2.20
2022-11-13T10:31:58.598Z,2.20
2022-11-13T10:32:58.603Z,2.10
2022-11-13T10:33:58.574Z,2.70
2022-11-13T10:34:58.610Z,2.00
2022-11-13T10:35:58.541Z,2.80
2022-11-13T10:36:58.608Z,2.10
2022-11-13T10:38:02.063Z,2.60
2022-11-13T10:38:59.500Z,2.40
2022-11-13T10:39:58.490Z,3.00
2022-11-13T10:40:58.798Z,2.40
2022-11-13T10:41:58.461Z,2.10
2022-11-13T10:42:58.517Z,2.40
2022-11-13T10:43:58.449Z,2.20
2022-11-13T10:44:58.433Z,2.30
2022-11-13T10:45:58.412Z,2.10
2022-11-13T10:46:58.406Z,2.40
2022-11-13T10:48:04.229Z,2.30
2022-11-13T10:48:59.457Z,2.20
2022-11-13T10:49:58.357Z,2.50
2022-11-13T10:50:58.346Z,2.40
2022-11-13T10:51:58.334Z,2.00
2022-11-13T10:52:58.327Z,2.20
2022-11-13T10:53:58.315Z,2.50
2022-11-13T10:54:58.337Z,2.60
2022-11-13T10:55:58.306Z,2.70
2022-11-13T10:56:58.267Z,2.00
2022-11-13T10:57:58.255Z,2.50
2022-11-13T10:58:58.242Z,2.60
2022-11-13T10:59:58.224Z,1.90
2022-11-13T11:00:58.368Z,2.50
2022-11-13T11:01:58.204Z,2.10
2022-11-13T11:02:58.184Z,2.10
2022-11-13T11:03:58.172Z,2.80
2022-11-13T11:04:58.163Z,2.50
2022-11-13T11:05:58.153Z,2.50
2022-11-13T11:07:19.743Z,2.70
2022-11-13T11:07:59.177Z,2.10
2022-11-13T11:08:58.103Z,2.70
2022-11-13T11:09:58.109Z,2.10
2022-11-13T11:10:58.094Z,2.10
2022-11-13T11:11:58.071Z,2.40
2022-11-13T11:12:58.109Z,3.00
2022-11-13T11:13:58.040Z,2.20
2022-11-13T11:15:07.766Z,2.40
2022-11-13T11:15:58.193Z,2.90
2022-11-13T11:17:00.773Z,2.90
2022-11-13T11:17:58.039Z,2.50
2022-11-13T11:18:58.155Z,2.60
2022-11-13T11:19:57.976Z,2.30
2022-11-13T11:20:57.957Z,2.70
2022-11-13T11:21:57.938Z,2.60
2022-11-13T11:22:57.953Z,2.30
2022-11-13T11:23:58.065Z,2.90
2022-11-13T11:24:57.943Z,2.30
2022-11-13T11:25:57.911Z,2.90
2022-11-13T11:26:57.954Z,2.30
2022-11-13T11:27:57.923Z,2.60
2022-11-13T11:28:57.983Z,2.60
2022-11-13T11:29:58.218Z,2.40
2022-11-13T11:30:57.825Z,2.60
2022-11-13T11:31:57.840Z,2.50
2022-11-13T11:32:58.035Z,2.30
2022-11-13T11:33:57.954Z,2.70
2022-11-13T11:34:59.152Z,2.30
2022-11-13T11:35:57.763Z,2.50
2022-11-13T11:36:57.872Z,2.90
2022-11-13T11:37:57.780Z,3.00
2022-11-13T11:38:57.720Z,2.60
2022-11-13T11:39:57.761Z,2.40
2022-11-13T11:40:57.697Z,3.40
2022-11-13T11:41:57.745Z,2.60
2022-11-13T11:42:57.670Z,2.30
2022-11-13T11:43:57.722Z,2.50
2022-11-13T11:44:57.683Z,2.60
2022-11-13T11:45:57.683Z,2.10
2022-11-13T11:46:57.704Z,2.30
2022-11-13T11:47:57.600Z,3.10
2022-11-13T11:48:57.607Z,3.50
2022-11-13T11:49:57.584Z,2.80
2022-11-13T11:50:57.610Z,2.40
2022-11-13T11:51:57.606Z,2.70
2022-11-13T11:52:58.502Z,3.30
2022-11-13T11:53:57.554Z,2.90
2022-11-13T11:54:57.519Z,2.90
2022-11-13T11:55:57.487Z,2.70
2022-11-13T11:56:57.623Z,2.40
2022-11-13T11:57:57.724Z,2.80
2022-11-13T11:58:57.459Z,2.50
2022-11-13T11:59:57.446Z,2.60
2022-11-13T12:00:57.446Z,3.00
2022-11-13T12:01:57.416Z,2.50
2022-11-13T12:02:57.407Z,2.40
2022-11-13T12:03:57.459Z,2.10
2022-11-13T12:04:57.444Z,3.00
2022-11-13T12:05:57.356Z,2.30
2022-11-13T12:06:57.652Z,2.60
2022-11-13T12:07:57.332Z,2.50
2022-11-13T12:08:57.331Z,2.50
2022-11-13T12:09:57.624Z,2.40
2022-11-13T12:10:57.300Z,2.40
2022-11-13T12:11:57.314Z,2.20
2022-11-13T12:12:57.901Z,2.70
2022-11-13T12:13:58.517Z,2.60
2022-11-13T12:14:57.283Z,2.50
2022-11-13T12:15:57.391Z,2.50
2022-11-13T12:16:57.222Z,2.60
2022-11-13T12:17:57.278Z,3.20
2022-11-13T12:18:57.192Z,3.00
2022-11-13T12:19:57.338Z,2.60
2022-11-13T12:20:57.444Z,2.50
2022-11-13T12:21:57.259Z,2.20
2022-11-13T12:22:57.142Z,2.50
2022-11-13T12:23:57.129Z,2.30
2022-11-13T12:24:57.117Z,2.40
2022-11-13T12:25:57.132Z,2.90
2022-11-13T12:26:57.138Z,3.10
2022-11-13T12:27:57.123Z,2.50
2022-11-13T12:28:57.140Z,2.60
2022-11-13T12:29:57.058Z,2.40
2022-11-13T12:30:57.110Z,2.60
2022-11-13T12:31:57.068Z,2.30
2022-11-13T12:32:57.216Z,2.60
2022-11-13T12:34:01.062Z,2.70
2022-11-13T12:34:57.043Z,2.90
2022-11-13T12:35:57.040Z,2.30
2022-11-13T12:36:57.029Z,2.80
2022-11-13T12:37:56.957Z,2.70
2022-11-13T12:38:56.935Z,2.90
2022-11-13T12:39:56.936Z,2.60
2022-11-13T12:40:56.907Z,2.90
2022-11-13T12:41:57.105Z,2.40
2022-11-13T12:42:56.927Z,2.50
2022-11-13T12:43:56.903Z,2.90
2022-11-13T12:44:56.877Z,2.70
2022-11-13T12:45:56.837Z,2.90
2022-11-13T12:46:56.848Z,2.40
2022-11-13T12:47:56.857Z,2.30
2022-11-13T12:48:56.814Z,2.20
2022-11-13T12:49:56.847Z,2.80
2022-11-13T12:50:56.775Z,2.60
2022-11-13T12:51:56.773Z,2.40
2022-11-13T12:52:56.765Z,2.70
2022-11-13T12:53:56.762Z,2.60
2022-11-13T12:54:56.800Z,2.20
2022-11-13T12:55:56.729Z,2.60
2022-11-13T12:56:56.706Z,2.40
2022-11-13T12:57:56.683Z,2.70
2022-11-13T12:59:23.743Z,2.40
2022-11-13T12:59:57.736Z,2.50
2022-11-13T13:00:56.683Z,2.70
2022-11-13T13:01:56.631Z,2.70
2022-11-13T13:02:56.621Z,2.40
2022-11-13T13:03:56.629Z,2.50
2022-11-13T13:04:56.650Z,2.30
2022-11-13T13:05:56.624Z,2.50
2022-11-13T13:06:56.627Z,2.30
2022-11-13T13:07:58.003Z,2.70
2022-11-13T13:08:56.642Z,2.70
2022-11-13T13:09:56.524Z,2.80
2022-11-13T13:10:56.691Z,2.60
2022-11-13T13:11:56.560Z,2.40
2022-11-13T13:12:56.498Z,2.70
2022-11-13T13:13:56.516Z,2.30
2022-11-13T13:14:56.469Z,2.30
2022-11-13T13:15:56.509Z,3.10
2022-11-13T13:16:56.477Z,2.40
2022-11-13T13:17:56.478Z,2.70
2022-11-13T13:18:56.426Z,2.40
2022-11-13T13:19:56.501Z,2.60
2022-11-13T13:20:56.386Z,3.10
2022-11-13T13:21:56.367Z,3.00
2022-11-13T13:22:56.396Z,3.10
2022-11-13T13:23:56.364Z,2.80
2022-11-13T13:24:56.362Z,2.70
2022-11-13T13:25:56.392Z,2.60
2022-11-13T13:26:56.324Z,3.30
2022-11-13T13:27:56.316Z,2.70
2022-11-13T13:28:56.385Z,2.80
2022-11-13T13:29:56.286Z,3.00
2022-11-13T13:30:56.266Z,2.90
2022-11-13T13:31:56.340Z,2.50
2022-11-13T13:32:56.246Z,2.50
2022-11-13T13:33:56.274Z,2.60
2022-11-13T13:34:56.221Z,2.90
2022-11-13T13:35:56.192Z,2.60
2022-11-13T13:36:56.262Z,2.40
2022-11-13T13:37:56.236Z,3.00
2022-11-13T13:38:56.224Z,2.40
2022-11-13T13:39:56.142Z,2.60
2022-11-13T13:40:56.171Z,3.00
2022-11-13T13:41:56.122Z,2.60
2022-11-13T13:42:56.110Z,2.70
2022-11-13T13:43:56.324Z,2.60
2022-11-13T13:44:56.099Z,2.60
2022-11-13T13:45:56.082Z,2.80
2022-11-13T13:46:56.071Z,2.40
2022-11-13T13:47:56.048Z,2.20
2022-11-13T13:48:56.041Z,2.70
2022-11-13T13:49:56.122Z,2.50
2022-11-13T13:50:55.998Z,2.80
2022-11-13T13:51:56.010Z,2.60
2022-11-13T13:52:56.214Z,4.00
2022-11-13T13:53:55.999Z,2.70
2022-11-13T13:54:55.952Z,2.80
2022-11-13T13:55:56.005Z,3.00
2022-11-13T13:56:55.941Z,2.90
2022-11-13T13:57:55.922Z,2.70
2022-11-13T13:58:55.896Z,2.60
2022-11-13T13:59:55.900Z,2.40
2022-11-13T14:01:17.057Z,2.50
2022-11-13T14:01:57.160Z,2.60
2022-11-13T14:02:55.849Z,2.80
2022-11-13T14:03:55.838Z,2.40
2022-11-13T14:04:55.845Z,2.40
2022-11-13T14:06:00.950Z,2.80
2022-11-13T14:06:56.882Z,2.50
2022-11-13T14:07:57.015Z,2.60
2022-11-13T14:08:55.820Z,2.60
2022-11-13T14:09:55.767Z,2.40
2022-11-13T14:10:55.757Z,2.40
2022-11-13T14:11:55.741Z,2.80
2022-11-13T14:12:55.731Z,2.60
2022-11-13T14:13:55.762Z,2.40
2022-11-13T14:14:55.729Z,2.40
2022-11-13T14:15:55.695Z,2.50
2022-11-13T14:16:55.668Z,2.70
2022-11-13T14:17:55.674Z,2.70
2022-11-13T14:18:55.679Z,2.50
2022-11-13T14:19:55.673Z,3.10
2022-11-13T14:20:55.717Z,2.90
2022-11-13T14:21:55.627Z,2.90
2022-11-13T14:22:56.646Z,2.70
2022-11-13T14:23:55.606Z,2.50
2022-11-13T14:24:55.663Z,2.60
2022-11-13T14:25:55.732Z,3.30
2022-11-13T14:26:55.621Z,2.90
2022-11-13T14:27:55.568Z,2.50
2022-11-13T14:28:55.525Z,3.10
2022-11-13T14:29:55.510Z,2.30
2022-11-13T14:30:55.511Z,2.80
2022-11-13T14:31:55.519Z,2.60
2022-11-13T14:32:55.472Z,2.70
2022-11-13T14:33:55.475Z,3.00
2022-11-13T14:34:55.443Z,2.40
2022-11-13T14:35:55.431Z,2.90
2022-11-13T14:36:55.414Z,2.50
2022-11-13T14:37:55.622Z,2.40
2022-11-13T14:38:55.381Z,2.40
2022-11-13T14:39:55.380Z,2.60
2022-11-13T14:40:55.374Z,2.90
2022-11-13T14:41:55.349Z,2.20
2022-11-13T14:42:55.346Z,2.80
2022-11-13T14:43:55.399Z,2.70
2022-11-13T14:44:55.307Z,2.60
2022-11-13T14:45:55.349Z,3.00
2022-11-13T14:46:55.286Z,2.10
2022-11-13T14:47:55.384Z,2.50
2022-11-13T14:48:55.257Z,2.70
2022-11-13T14:49:55.308Z,2.60
2022-11-13T14:50:55.329Z,2.00
2022-11-13T14:51:55.253Z,3.10
2022-11-13T14:52:55.219Z,2.20
2022-11-13T14:53:55.208Z,2.10
2022-11-13T14:55:14.083Z,2.60
2022-11-13T14:55:56.415Z,2.30
2022-11-13T14:56:55.174Z,3.00
2022-11-13T14:57:55.156Z,2.50
2022-11-13T14:58:55.167Z,2.70
2022-11-13T14:59:55.126Z,3.00
2022-11-13T15:00:55.275Z,2.40
2022-11-13T15:01:55.135Z,2.90
2022-11-13T15:02:55.119Z,2.60
2022-11-13T15:03:55.197Z,2.70
2022-11-13T15:04:55.066Z,2.40
2022-11-13T15:05:55.065Z,2.60
2022-11-13T15:06:55.141Z,2.90
2022-11-13T15:07:55.065Z,2.80
2022-11-13T15:08:55.008Z,2.90
2022-11-13T15:09:54.999Z,3.10
2022-11-13T15:10:54.988Z,2.50
2022-11-13T15:11:54.993Z,2.40
2022-11-13T15:12:54.954Z,2.70
2022-11-13T15:13:57.821Z,2.50
2022-11-13T15:14:55.932Z,2.70
2022-11-13T15:15:54.933Z,2.90
2022-11-13T15:16:55.127Z,2.50
2022-11-13T15:17:54.918Z,2.50
2022-11-13T15:18:54.872Z,3.00
2022-11-13T15:19:54.896Z,2.30
2022-11-13T15:20:54.843Z,2.60
2022-11-13T15:22:25.210Z,2.60
2022-11-13T15:22:55.872Z,2.50
2022-11-13T15:23:54.880Z,2.60
2022-11-13T15:24:54.823Z,3.20
2022-11-13T15:25:54.784Z,2.70
2022-11-13T15:26:54.781Z,2.40
2022-11-13T15:27:54.886Z,2.60
2022-11-13T15:28:54.967Z,2.40
2022-11-13T15:29:54.734Z,2.70
2022-11-13T15:30:54.712Z,3.30
2022-11-13T15:31:54.763Z,2.60
2022-11-13T15:32:54.697Z,2.60
2022-11-13T15:33:54.687Z,2.80
2022-11-13T15:34:54.852Z,5.40
2022-11-13T15:35:54.671Z,3.40
2022-11-13T15:36:54.645Z,5.80
2022-11-13T15:37:54.626Z,4.40
2022-11-13T15:38:54.637Z,6.10
2022-11-13T15:39:54.632Z,8.20
2022-11-13T15:40:54.620Z,7.20
2022-11-13T15:41:54.686Z,6.40
2022-11-13T15:42:54.555Z,7.20
2022-11-13T15:43:54.558Z,5.60
2022-11-13T15:44:54.535Z,6.30
2022-11-13T15:45:54.709Z,6.80
2022-11-13T15:46:54.727Z,6.50
2022-11-13T15:47:54.520Z,6.90
2022-11-13T15:48:54.506Z,5.10
2022-11-13T15:50:12.866Z,6.00
2022-11-13T15:50:55.467Z,5.40
2022-11-13T15:51:54.461Z,3.30
2022-11-13T15:52:54.513Z,2.50
2022-11-13T15:53:54.414Z,3.00
2022-11-13T15:54:54.412Z,2.80
2022-11-13T15:56:01.893Z,2.20
2022-11-13T15:56:55.058Z,3.10
2022-11-13T15:58:01.916Z,3.10
2022-11-13T15:59:01.351Z,3.00
2022-11-13T16:00:01.507Z,3.10
2022-11-13T16:01:01.459Z,4.10
2022-11-13T16:01:57.907Z,3.70
2022-11-13T16:02:54.296Z,3.00
2022-11-13T16:03:54.343Z,3.60
2022-11-13T16:04:56.546Z,3.20
2022-11-13T16:05:54.279Z,3.10
2022-11-13T16:06:54.300Z,3.10
2022-11-13T16:07:54.274Z,2.90
2022-11-13T16:08:54.256Z,3.20
2022-11-13T16:09:54.265Z,2.60
2022-11-13T16:10:54.305Z,3.80
2022-11-13T16:11:54.184Z,3.60
2022-11-13T16:12:54.239Z,3.60
2022-11-13T16:13:54.166Z,2.60
2022-11-13T16:14:54.143Z,3.20
2022-11-13T16:15:54.215Z,2.80
2022-11-13T16:16:54.146Z,3.10
2022-11-13T16:17:54.118Z,2.90
2022-11-13T16:18:59.863Z,3.10
2022-11-13T16:19:55.183Z,3.00
2022-11-13T16:20:54.081Z,3.00
2022-11-13T16:21:54.155Z,3.80
2022-11-13T16:22:54.043Z,3.70
2022-11-13T16:23:54.028Z,3.30
2022-11-13T16:24:54.016Z,3.10
2022-11-13T16:25:54.021Z,3.50
2022-11-13T16:26:53.977Z,4.60
2022-11-13T16:27:54.040Z,3.30
2022-11-13T16:29:12.705Z,3.60
2022-11-13T16:29:54.949Z,3.10
2022-11-13T16:30:53.949Z,3.80
2022-11-13T16:31:53.928Z,3.50
2022-11-13T16:32:53.897Z,3.00
2022-11-13T16:33:53.949Z,2.60
2022-11-13T16:34:53.889Z,2.90
2022-11-13T16:35:53.888Z,2.70
2022-11-13T16:36:53.858Z,2.10
2022-11-13T16:37:53.929Z,2.40
2022-11-13T16:38:54.072Z,2.40
2022-11-13T16:39:53.863Z,2.50
2022-11-13T16:40:53.870Z,2.20
2022-11-13T16:41:53.805Z,2.50
2022-11-13T16:42:53.883Z,2.80
2022-11-13T16:43:53.855Z,2.50
2022-11-13T16:44:53.766Z,2.40
2022-11-13T16:45:53.754Z,3.00
2022-11-13T16:46:53.756Z,2.90
2022-11-13T16:47:53.772Z,2.10
2022-11-13T16:48:53.717Z,2.10
2022-11-13T16:49:53.741Z,2.80
2022-11-13T16:50:53.693Z,3.00
2022-11-13T16:51:53.716Z,2.50
2022-11-13T16:52:53.643Z,2.60
2022-11-13T16:53:53.768Z,2.80
2022-11-13T16:54:53.630Z,2.70
2022-11-13T16:55:53.660Z,1.90
2022-11-13T16:56:53.601Z,2.60
2022-11-13T16:57:53.593Z,2.80
2022-11-13T16:58:53.579Z,3.50
2022-11-13T16:59:53.757Z,2.90
2022-11-13T17:00:58.877Z,2.70
2022-11-13T17:01:54.661Z,2.80
2022-11-13T17:02:53.617Z,3.60
2022-11-13T17:03:53.516Z,4.40
2022-11-13T17:04:53.490Z,5.30
2022-11-13T17:05:53.569Z,4.50
2022-11-13T17:06:56.873Z,5.90
2022-11-13T17:07:53.478Z,4.90
2022-11-13T17:08:53.458Z,3.90
2022-11-13T17:10:16.781Z,4.90
2022-11-13T17:10:54.608Z,4.60
2022-11-13T17:11:53.437Z,5.40
2022-11-13T17:12:53.397Z,4.60
2022-11-13T17:13:53.407Z,5.20
2022-11-13T17:14:53.428Z,5.40
2022-11-13T17:17:12.485Z,4.20
2022-11-13T17:18:12.148Z,4.90
2022-11-13T17:19:12.169Z,5.00
2022-11-13T17:20:12.174Z,4.60
2022-11-13T17:21:12.168Z,5.10
2022-11-13T17:22:12.080Z,5.40
2022-11-13T17:23:12.485Z,5.20
2022-11-13T17:24:12.058Z,5.10
2022-11-13T17:25:12.047Z,4.80
2022-11-13T17:26:12.097Z,4.80
2022-11-13T17:27:12.018Z,4.40
2022-11-13T17:28:12.014Z,4.70
2022-11-13T17:29:12.103Z,3.30
2022-11-13T17:30:12.012Z,3.70
2022-11-13T17:31:11.972Z,3.40
2022-11-13T17:32:11.960Z,3.50
2022-11-13T17:33:11.947Z,2.90
2022-11-13T17:34:11.951Z,4.10
2022-11-13T17:35:11.986Z,3.50
2022-11-13T17:36:11.911Z,3.60
2022-11-13T17:37:11.893Z,2.90
2022-11-13T17:38:12.084Z,3.70
2022-11-13T17:39:11.954Z,3.40
2022-11-13T17:40:11.956Z,3.90
2022-11-13T17:41:11.845Z,4.30
2022-11-13T17:42:11.880Z,4.60
2022-11-13T17:43:11.972Z,6.50
2022-11-13T17:44:11.808Z,5.50
2022-11-13T17:45:11.831Z,3.70
2022-11-13T17:46:11.788Z,4.60
2022-11-13T17:47:11.762Z,3.00
2022-11-13T17:48:11.751Z,3.30
2022-11-13T17:49:11.816Z,2.30
2022-11-13T17:50:11.796Z,2.70
2022-11-13T17:51:11.743Z,2.80
2022-11-13T17:52:11.699Z,2.30
2022-11-13T17:53:11.689Z,3.30
2022-11-13T17:54:11.738Z,2.10
2022-11-13T17:55:11.658Z,2.60
2022-11-13T17:56:11.638Z,3.70
2022-11-13T17:57:11.636Z,2.80
2022-11-13T17:58:11.624Z,2.70
2022-11-13T17:59:11.635Z,1.90
2022-11-13T18:00:12.403Z,2.40
2022-11-13T18:01:11.634Z,2.50
2022-11-13T18:02:11.576Z,2.30
2022-11-13T18:03:11.587Z,2.50
2022-11-13T18:04:11.545Z,2.00
2022-11-13T18:05:11.601Z,2.70
2022-11-13T18:06:13.422Z,2.00
2022-11-13T18:07:11.557Z,2.50
2022-11-13T18:08:11.516Z,2.20
2022-11-13T18:09:11.484Z,2.90
2022-11-13T18:10:11.486Z,2.40
2022-11-13T18:11:11.463Z,2.20
2022-11-13T18:12:11.554Z,2.50
2022-11-13T18:13:11.443Z,2.60
2022-11-13T18:14:11.424Z,2.70
2022-11-13T18:15:11.411Z,2.90
2022-11-13T18:16:11.400Z,2.60
2022-11-13T18:17:11.387Z,2.40
2022-11-13T18:18:11.608Z,4.20
2022-11-13T18:19:11.373Z,3.90
2022-11-13T18:20:11.413Z,3.70